createdAt,value
2018-04-25T00:01:37.167Z,100410.22
2018-04-25T00:04:05.860Z,100401.10
2018-04-25T00:06:35.076Z,100397.58
2018-04-25T00:09:05.066Z,100392.70
2018-04-25T00:11:34.228Z,100387.34
2018-04-25T00:14:03.470Z,100385.84
2018-04-25T00:16:32.268Z,100372.50
2018-04-25T00:19:00.733Z,100370.05
2018-04-25T00:21:29.075Z,100359.53
2018-04-25T00:23:58.195Z,100357.44
2018-04-25T00:26:27.248Z,100354.12
2018-04-25T00:28:56.436Z,100342.92
2018-04-25T00:31:26.056Z,100342.30
2018-04-25T00:33:54.416Z,100337.34
2018-04-25T00:36:22.728Z,100321.42
2018-04-25T00:38:55.445Z,100336.64
2018-04-25T00:41:23.780Z,100327.30
2018-04-25T00:43:53.905Z,100335.25
2018-04-25T00:46:22.279Z,100331.67
2018-04-25T00:48:51.378Z,100329.84
2018-04-25T00:51:20.481Z,100325.81
2018-04-25T00:53:48.875Z,100311.77
2018-04-25T00:56:17.186Z,100320.48
2018-04-25T00:58:47.674Z,100315.11
2018-04-25T01:01:16.866Z,100314.17
2018-04-25T01:03:45.225Z,100312.36
2018-04-25T01:06:14.321Z,100313.84
2018-04-25T01:08:44.335Z,100304.67
2018-04-25T01:11:13.994Z,100307.77
2018-04-25T01:13:42.355Z,100298.98
2018-04-25T01:16:10.718Z,100291.03
2018-04-25T01:18:39.785Z,100295.27
2018-04-25T01:21:08.960Z,100293.02
2018-04-25T01:23:37.320Z,100288.55
2018-04-25T01:26:06.612Z,100279.28
2018-04-25T01:28:53.047Z,100282.66
2018-04-25T01:34:42.943Z,100261.86
2018-04-25T01:37:23.979Z,100259.14
2018-04-25T01:39:56.922Z,100257.18
2018-04-25T01:42:32.852Z,100253.93
2018-04-25T01:45:05.256Z,100248.14
2018-04-25T01:47:39.729Z,100245.41
2018-04-25T01:50:16.511Z,100246.78
2018-04-25T01:53:02.427Z,100246.73
2018-04-25T01:55:49.226Z,100240.77
2018-04-25T01:58:35.204Z,100232.67
2018-04-25T02:01:19.852Z,100237.55
2018-04-25T02:03:55.486Z,100229.97
2018-04-25T02:06:24.639Z,100222.39
2018-04-25T02:08:54.739Z,100218.75
2018-04-25T02:11:23.497Z,100212.89
2018-04-25T02:13:52.359Z,100209.78
2018-04-25T02:16:21.084Z,100207.56
2018-04-25T02:18:49.459Z,100201.33
2018-04-25T02:21:17.833Z,100201.81
2018-04-25T02:23:46.146Z,100198.95
2018-04-25T02:26:14.593Z,100191.34
2018-04-25T02:28:43.144Z,100193.97
2018-04-25T02:31:11.515Z,100186.41
2018-04-25T02:33:39.870Z,100180.26
2018-04-25T02:36:09.003Z,100179.34
2018-04-25T02:38:37.379Z,100181.18
2018-04-25T02:41:05.717Z,100169.17
2018-04-25T02:43:34.089Z,100166.91
2018-04-25T02:46:02.430Z,100167.23
2018-04-25T02:48:31.175Z,100156.62
2018-04-25T02:51:00.299Z,100156.17
2018-04-25T02:53:28.627Z,100160.59
2018-04-25T02:55:57.007Z,100152.27
2018-04-25T02:58:25.343Z,100152.25
2018-04-25T03:00:53.690Z,100141.75
2018-04-25T03:03:22.069Z,100145.73
2018-04-25T03:05:50.788Z,100144.41
2018-04-25T03:08:19.087Z,100138.66
2018-04-25T03:10:47.441Z,100137.36
2018-04-25T03:13:15.797Z,100133.00
2018-04-25T03:15:44.560Z,100126.41
2018-04-25T03:18:13.658Z,100115.77
2018-04-25T03:20:43.531Z,100118.39
2018-04-25T03:23:11.836Z,100117.11
2018-04-25T03:25:40.198Z,100121.61
2018-04-25T03:28:09.289Z,100121.66
2018-04-25T03:30:37.634Z,100114.19
2018-04-25T03:33:06.010Z,100108.84
2018-04-25T03:35:34.362Z,100104.89
2018-04-25T03:38:02.694Z,100105.37
2018-04-25T03:40:31.058Z,100094.02
2018-04-25T03:42:59.408Z,100086.88
2018-04-25T03:45:28.518Z,100081.91
2018-04-25T03:47:57.626Z,100081.34
2018-04-25T03:50:25.986Z,100075.01
2018-04-25T03:52:54.380Z,100076.14
2018-04-25T03:55:23.154Z,100079.64
2018-04-25T03:57:51.918Z,100075.63
2018-04-25T04:00:21.000Z,100075.52
2018-04-25T04:02:50.513Z,100075.47
2018-04-25T04:05:19.649Z,100074.55
2018-04-25T04:07:47.972Z,100058.42
2018-04-25T04:10:17.113Z,100070.23
2018-04-25T04:12:45.458Z,100069.00
2018-04-25T04:15:14.190Z,100067.42
2018-04-25T04:17:42.565Z,100067.72
2018-04-25T04:20:11.672Z,100064.91
2018-04-25T04:22:40.094Z,100071.06
2018-04-25T04:25:09.225Z,100064.60
2018-04-25T04:27:38.858Z,100056.28
2018-04-25T04:30:07.238Z,100053.27
2018-04-25T04:32:35.610Z,100053.03
2018-04-25T04:35:03.946Z,100053.11
2018-04-25T04:37:32.341Z,100054.98
2018-04-25T04:40:00.686Z,100048.94
2018-04-25T04:42:29.906Z,100046.63
2018-04-25T04:44:58.216Z,100048.02
2018-04-25T04:47:26.568Z,100048.13
2018-04-25T04:49:54.926Z,100046.24
2018-04-25T04:52:23.242Z,100043.79
2018-04-25T04:54:51.614Z,100048.68
2018-04-25T04:57:19.970Z,100047.84
2018-04-25T04:59:48.361Z,100043.31
2018-04-25T05:02:17.514Z,100040.83
2018-04-25T05:04:45.861Z,100037.24
2018-04-25T05:07:14.178Z,100043.10
2018-04-25T05:09:43.318Z,100038.60
2018-04-25T05:12:11.636Z,100038.31
2018-04-25T05:14:39.964Z,100032.62
2018-04-25T05:17:08.334Z,100038.38
2018-04-25T05:19:36.833Z,100044.23
2018-04-25T05:22:05.180Z,100051.03
2018-04-25T05:24:33.605Z,100047.13
2018-04-25T05:27:02.645Z,100051.00
2018-04-25T05:29:31.002Z,100051.66
2018-04-25T05:31:59.450Z,100042.44
2018-04-25T05:34:28.476Z,100047.29
2018-04-25T05:36:56.805Z,100037.50
2018-04-25T05:39:25.150Z,100041.72
2018-04-25T05:41:54.262Z,100042.65
2018-04-25T05:44:22.621Z,100038.17
2018-04-25T05:46:51.793Z,100038.38
2018-04-25T05:49:20.154Z,100034.23
2018-04-25T05:51:48.488Z,100029.19
2018-04-25T05:54:16.817Z,100031.02
2018-04-25T05:56:45.172Z,100029.95
2018-04-25T05:59:14.252Z,100030.41
2018-04-25T06:01:42.596Z,100033.52
2018-04-25T06:04:12.077Z,100024.11
2018-04-25T06:06:40.567Z,100018.59
2018-04-25T06:09:09.660Z,100016.70
2018-04-25T06:11:38.053Z,100024.80
2018-04-25T06:14:07.893Z,100020.66
2018-04-25T06:16:36.251Z,100019.13
2018-04-25T06:19:05.410Z,100019.31
2018-04-25T06:21:33.713Z,100017.44
2018-04-25T06:24:02.805Z,100013.06
2018-04-25T06:26:31.972Z,100015.16
2018-04-25T06:29:00.319Z,100015.62
2018-04-25T06:31:28.653Z,100017.30
2018-04-25T06:33:58.681Z,100018.20
2018-04-25T06:36:27.763Z,100012.14
2018-04-25T06:38:56.893Z,100022.05
2018-04-25T06:41:26.450Z,100017.77
2018-04-25T06:43:54.805Z,100011.70
2018-04-25T06:46:23.132Z,100010.22
2018-04-25T06:48:52.269Z,100003.09
2018-04-25T06:51:20.627Z,100002.39
2018-04-25T06:53:48.979Z,99995.35
2018-04-25T06:56:17.384Z,99995.32
2018-04-25T06:58:45.717Z,99985.28
2018-04-25T07:01:14.222Z,99987.66
2018-04-25T07:03:42.611Z,99982.58
2018-04-25T07:06:10.964Z,99979.41
2018-04-25T07:08:39.293Z,99978.64
2018-04-25T07:11:07.649Z,99968.05
2018-04-25T07:13:35.980Z,99978.40
2018-04-25T07:16:04.336Z,99974.18
2018-04-25T07:18:32.656Z,99972.61
2018-04-25T07:21:01.736Z,99977.28
2018-04-25T07:23:30.105Z,99971.64
2018-04-25T07:25:58.420Z,99963.93
2018-04-25T07:28:26.779Z,99963.67
2018-04-25T07:30:55.089Z,99971.82
2018-04-25T07:33:23.433Z,99968.91
2018-04-25T07:35:51.785Z,99969.38
2018-04-25T07:38:20.135Z,99970.19
2018-04-25T07:40:48.465Z,99969.52
2018-04-25T07:43:16.788Z,99974.16
2018-04-25T07:45:45.153Z,99962.28
2018-04-25T07:48:13.463Z,99967.39
2018-04-25T07:50:41.772Z,99966.66
2018-04-25T07:53:11.015Z,99968.80
2018-04-25T07:55:39.357Z,99964.59
2018-04-25T07:58:08.432Z,99974.14
2018-04-25T08:00:36.792Z,99971.40
2018-04-25T08:03:05.108Z,99965.02
2018-04-25T08:05:34.178Z,99964.22
2018-04-25T08:08:02.536Z,99961.48
2018-04-25T08:10:30.887Z,99958.92
2018-04-25T08:13:17.788Z,99964.16
2018-04-25T08:16:03.902Z,99967.64
2018-04-25T08:21:43.711Z,99955.63
2018-04-25T08:24:12.032Z,99954.95
2018-04-25T08:26:41.133Z,99950.83
2018-04-25T08:29:09.468Z,99952.17
2018-04-25T08:31:38.780Z,99958.42
2018-04-25T08:34:07.847Z,99953.41
2018-04-25T08:36:36.165Z,99943.72
2018-04-25T08:39:04.488Z,99963.91
2018-04-25T08:41:32.840Z,99938.77
2018-04-25T08:44:01.196Z,99939.92
2018-04-25T08:46:29.599Z,99938.33
2018-04-25T08:48:57.936Z,99939.55
2018-04-25T08:51:27.001Z,99942.50
2018-04-25T08:53:55.365Z,99953.47
2018-04-25T08:56:23.831Z,99944.81
2018-04-25T08:58:52.189Z,99948.59
2018-04-25T09:01:20.536Z,99945.38
2018-04-25T09:03:49.656Z,99951.34
2018-04-25T09:06:17.994Z,99948.08
2018-04-25T09:08:46.326Z,99948.42
2018-04-25T09:11:14.634Z,99940.03
2018-04-25T09:13:42.995Z,99936.47
2018-04-25T09:16:11.313Z,99938.87
2018-04-25T09:18:39.650Z,99935.55
2018-04-25T09:21:08.019Z,99935.33
2018-04-25T09:23:36.347Z,99925.25
2018-04-25T09:26:04.701Z,99925.28
2018-04-25T09:28:33.056Z,99929.39
2018-04-25T09:31:01.382Z,99927.64
2018-04-25T09:33:30.510Z,99914.34
2018-04-25T09:35:58.836Z,99929.69
2018-04-25T09:38:27.185Z,99913.41
2018-04-25T09:40:55.559Z,99925.09
2018-04-25T09:43:23.883Z,99912.82
2018-04-25T09:45:53.007Z,99915.72
2018-04-25T09:48:21.342Z,99911.11
2018-04-25T09:50:49.660Z,99920.44
2018-04-25T09:53:18.377Z,99909.63
2018-04-25T09:55:46.716Z,99902.48
2018-04-25T09:58:15.786Z,99902.29
2018-04-25T10:00:50.844Z,99908.20
2018-04-25T10:03:23.848Z,99913.51
2018-04-25T10:05:52.656Z,99918.04
2018-04-25T10:08:21.004Z,99914.69
2018-04-25T10:10:50.143Z,99907.95
2018-04-25T10:13:18.460Z,99913.51
2018-04-25T10:15:47.599Z,99909.80
2018-04-25T10:18:16.076Z,99902.84
2018-04-25T10:20:44.563Z,99909.05
2018-04-25T10:23:12.904Z,99898.96
2018-04-25T10:25:42.124Z,99897.25
2018-04-25T10:28:11.557Z,99891.24
2018-04-25T10:30:39.884Z,99890.22
2018-04-25T10:33:09.013Z,99880.38
2018-04-25T10:35:38.889Z,99882.59
2018-04-25T10:38:09.929Z,99858.38
2018-04-25T10:40:38.250Z,99872.91
2018-04-25T10:45:34.962Z,99871.03
2018-04-25T10:48:04.271Z,99887.59
2018-04-25T10:50:33.489Z,99863.91
2018-04-25T10:53:03.140Z,99873.23
2018-04-25T10:55:32.454Z,99873.94
2018-04-25T10:58:00.764Z,99880.71
2018-04-25T11:00:29.147Z,99869.38
2018-04-25T11:02:57.466Z,99871.81
2018-04-25T11:05:25.797Z,99878.30
2018-04-25T11:07:54.183Z,99864.81
2018-04-25T11:10:22.554Z,99851.41
2018-04-25T11:12:50.906Z,99860.72
2018-04-25T11:15:19.995Z,99855.94
2018-04-25T11:17:49.209Z,99860.36
2018-04-25T11:20:18.285Z,99861.03
2018-04-25T11:22:46.667Z,99869.84
2018-04-25T11:25:15.762Z,99868.60
2018-04-25T11:27:44.169Z,99860.17
2018-04-25T11:30:12.472Z,99853.09
2018-04-25T11:32:40.848Z,99839.94
2018-04-25T11:35:09.938Z,99844.11
2018-04-25T11:37:38.260Z,99844.03
2018-04-25T11:40:08.382Z,99840.23
2018-04-25T11:42:36.724Z,99838.67
2018-04-25T11:45:05.214Z,99825.11
2018-04-25T11:47:33.706Z,99826.34
2018-04-25T11:50:02.014Z,99824.38
2018-04-25T11:52:31.325Z,99828.36
2018-04-25T11:54:59.665Z,99827.50
2018-04-25T11:57:28.062Z,99831.97
2018-04-25T11:59:57.144Z,99812.06
2018-04-25T12:02:26.270Z,99827.38
2018-04-25T12:04:54.691Z,99833.97
2018-04-25T12:07:22.984Z,99829.10
2018-04-25T12:09:51.288Z,99835.94
2018-04-25T12:12:19.747Z,99857.22
2018-04-25T12:14:48.056Z,99836.08
2018-04-25T12:17:16.409Z,99843.18
2018-04-25T12:19:44.729Z,99842.94
2018-04-25T12:22:13.078Z,99842.86
2018-04-25T12:24:42.152Z,99838.11
2018-04-25T12:27:10.521Z,99841.25
2018-04-25T12:29:38.923Z,99838.34
2018-04-25T12:32:07.296Z,99853.64
2018-04-25T12:34:36.370Z,99844.06
2018-04-25T12:37:04.698Z,99850.36
2018-04-25T12:39:33.068Z,99840.36
2018-04-25T12:42:01.371Z,99835.37
2018-04-25T12:44:29.823Z,99835.34
2018-04-25T12:46:58.136Z,99832.00
2018-04-25T12:49:27.218Z,99835.45
2018-04-25T12:51:55.570Z,99826.77
2018-04-25T12:54:23.881Z,99817.55
2018-04-25T12:56:52.250Z,99829.94
2018-04-25T12:59:20.692Z,99840.67
2018-04-25T13:01:49.845Z,99840.66
2018-04-25T13:04:18.178Z,99833.02
2018-04-25T13:06:47.305Z,99847.53
2018-04-25T13:09:16.481Z,99840.11
2018-04-25T13:11:45.344Z,99847.05
2018-04-25T13:14:15.289Z,99844.38
2018-04-25T13:16:43.689Z,99843.49
2018-04-25T13:19:12.079Z,99855.45
2018-04-25T13:21:41.235Z,99914.94
2018-04-25T13:24:11.002Z,99968.77
2018-04-25T13:26:39.605Z,99972.75
2018-04-25T13:29:08.109Z,99993.56
2018-04-25T13:31:36.676Z,100002.47
2018-04-25T13:34:05.811Z,99992.68
2018-04-25T13:36:34.630Z,99997.31
2018-04-25T13:39:03.252Z,99995.52
2018-04-25T13:41:32.701Z,99993.78
2018-04-25T13:44:01.347Z,99985.06
2018-04-25T13:46:30.205Z,99985.14
2018-04-25T13:49:00.320Z,99986.96
2018-04-25T13:51:30.427Z,99983.34
2018-04-25T13:53:58.892Z,99971.33
2018-04-25T13:56:27.216Z,99970.98
2018-04-25T13:58:55.632Z,99975.59
2018-04-25T14:01:24.013Z,99983.92
2018-04-25T14:03:53.859Z,99988.98
2018-04-25T14:06:34.820Z,99986.84
2018-04-25T14:09:05.964Z,99988.23
2018-04-25T14:11:34.497Z,99999.14
2018-04-25T14:14:04.979Z,99991.38
2018-04-25T14:16:33.425Z,99994.75
2018-04-25T14:19:04.746Z,100003.94
2018-04-25T14:21:33.249Z,100017.27
2018-04-25T14:24:01.869Z,100008.75
2018-04-25T14:26:30.829Z,99981.68
2018-04-25T14:28:59.265Z,99990.76
2018-04-25T14:31:27.833Z,99999.29
2018-04-25T14:33:57.377Z,100012.66
2018-04-25T14:36:28.007Z,100009.61
2018-04-25T14:38:56.901Z,99991.06
2018-04-25T14:41:25.381Z,99988.58
2018-04-25T14:43:56.029Z,99984.21
2018-04-25T14:46:26.350Z,99999.20
2018-04-25T14:48:55.410Z,99986.17
2018-04-25T14:51:24.755Z,99991.72
2018-04-25T14:53:53.144Z,99991.18
2018-04-25T14:56:23.127Z,100005.91
2018-04-25T14:58:51.549Z,100020.25
2018-04-25T15:01:19.929Z,100019.80
2018-04-25T15:03:48.343Z,100019.83
2018-04-25T15:06:20.566Z,100005.64
2018-04-25T15:08:50.371Z,100015.16
2018-04-25T15:11:18.764Z,100027.94
2018-04-25T15:13:49.177Z,100024.47
2018-04-25T15:16:19.268Z,100039.08
2018-04-25T15:18:48.015Z,100042.09
2018-04-25T15:21:16.496Z,100042.25
2018-04-25T15:23:45.706Z,100045.63
2018-04-25T15:26:15.274Z,100046.14
2018-04-25T15:28:43.756Z,100051.86
2018-04-25T15:31:15.716Z,100056.39
2018-04-25T15:33:54.552Z,100056.89
2018-04-25T15:36:27.988Z,100077.31
2018-04-25T15:38:56.343Z,100074.02
2018-04-25T15:41:24.763Z,100069.19
2018-04-25T15:43:59.551Z,100075.25
2018-04-25T15:46:28.159Z,100073.81
2018-04-25T15:48:57.269Z,100089.72
2018-04-25T15:51:25.834Z,100086.59
2018-04-25T15:53:54.958Z,100090.88
2018-04-25T15:56:23.446Z,100084.97
2018-04-25T15:58:51.780Z,100088.94
2018-04-25T16:01:20.993Z,100103.09
2018-04-25T16:03:51.153Z,100102.69
2018-04-25T16:06:19.999Z,100101.55
2018-04-25T16:08:49.281Z,100106.22
2018-04-25T16:11:18.440Z,100103.52
2018-04-25T16:13:46.857Z,100091.55
2018-04-25T16:16:15.220Z,100091.31
2018-04-25T16:18:45.596Z,100096.23
2018-04-25T16:21:15.485Z,100102.01
2018-04-25T16:23:44.237Z,100112.38
2018-04-25T16:26:14.201Z,100116.64
2018-04-25T16:28:42.580Z,100114.31
2018-04-25T16:31:10.987Z,100120.06
2018-04-25T16:33:39.357Z,100117.16
2018-04-25T16:36:10.516Z,100124.77
2018-04-25T16:38:39.278Z,100128.00
2018-04-25T16:41:09.739Z,100139.53
2018-04-25T16:43:38.117Z,100148.64
2018-04-25T16:46:06.824Z,100154.38
2018-04-25T16:48:36.147Z,100158.28
2018-04-25T16:51:04.955Z,100169.46
2018-04-25T16:53:33.985Z,100166.20
2018-04-25T16:56:03.826Z,100159.24
2018-04-25T16:58:32.274Z,100166.92
2018-04-25T17:01:07.540Z,100173.81
2018-04-25T17:03:35.898Z,100176.23
2018-04-25T17:06:04.281Z,100185.68
2018-04-25T17:08:32.603Z,100186.62
2018-04-25T17:11:00.960Z,100198.55
2018-04-25T17:13:30.060Z,100195.45
2018-04-25T17:15:59.192Z,100199.39
2018-04-25T17:18:27.532Z,100200.30
2018-04-25T17:20:56.677Z,100206.28
2018-04-25T17:23:25.029Z,100205.05
2018-04-25T17:25:53.369Z,100200.05
2018-04-25T17:28:21.735Z,100212.45
2018-04-25T17:30:50.153Z,100216.95
2018-04-25T17:33:19.240Z,100200.55
2018-04-25T17:35:49.164Z,100202.19
2018-04-25T17:38:17.503Z,100194.45
2018-04-25T17:40:45.878Z,100203.41
2018-04-25T17:43:14.328Z,100211.50
2018-04-25T17:45:42.671Z,100225.84
2018-04-25T17:48:11.796Z,100244.99
2018-04-25T17:50:40.132Z,100242.14
2018-04-25T17:53:09.280Z,100243.66
2018-04-25T17:55:37.721Z,100257.13
2018-04-25T17:58:06.105Z,100258.42
2018-04-25T18:00:34.459Z,100261.97
2018-04-25T18:03:04.865Z,100255.80
2018-04-25T18:05:34.187Z,100262.09
2018-04-25T18:08:03.586Z,100259.80
2018-04-25T18:10:33.606Z,100259.70
2018-04-25T18:13:02.902Z,100256.47
2018-04-25T18:15:32.431Z,100261.72
2018-04-25T18:18:00.828Z,100263.70
2018-04-25T18:20:29.972Z,100273.70
2018-04-25T18:22:58.375Z,100282.62
2018-04-25T18:25:27.483Z,100294.25
2018-04-25T18:27:55.860Z,100296.62
2018-04-25T18:30:27.385Z,100307.42
2018-04-25T18:32:58.372Z,100308.61
2018-04-25T18:35:26.974Z,100316.22
2018-04-25T18:37:56.156Z,100312.38
2018-04-25T18:40:25.239Z,100313.38
2018-04-25T18:42:54.440Z,100320.34
2018-04-25T18:45:22.839Z,100318.80
2018-04-25T18:47:51.307Z,100326.31
2018-04-25T18:50:19.765Z,100341.58
2018-04-25T18:52:48.640Z,100340.46
2018-04-25T18:55:17.808Z,100345.01
2018-04-25T18:57:46.403Z,100344.32
2018-04-25T19:00:16.136Z,100346.95
2018-04-25T19:02:45.788Z,100353.92
2018-04-25T19:07:47.944Z,100365.66
2018-04-25T19:10:34.573Z,100368.94
2018-04-25T19:13:04.255Z,100323.33
2018-04-25T19:15:33.203Z,100371.75
2018-04-25T19:18:27.839Z,100372.80
2018-04-25T19:20:58.622Z,100387.25
2018-04-25T19:23:29.935Z,100387.68
2018-04-25T19:25:59.467Z,100390.48
2018-04-25T19:28:30.740Z,100350.62
2018-04-25T19:36:45.787Z,100404.02
2018-04-25T19:39:16.030Z,100410.74
2018-04-25T19:41:44.452Z,100415.64
2018-04-25T19:44:12.886Z,100412.94
2018-04-25T19:46:41.244Z,100415.72
2018-04-25T19:49:09.674Z,100421.41
2018-04-25T19:51:38.985Z,100427.52
2018-04-25T19:54:08.238Z,100420.47
2018-04-25T19:56:36.659Z,100418.25
2018-04-25T19:59:06.100Z,100422.23
2018-04-25T20:01:35.412Z,100415.82
2018-04-25T20:04:03.858Z,100430.66
2018-04-25T20:06:32.297Z,100432.13
2018-04-25T20:09:00.716Z,100439.09
2018-04-25T20:11:29.911Z,100438.47
2018-04-25T20:13:59.058Z,100434.92
2018-04-25T20:16:27.443Z,100435.11
2018-04-25T20:18:55.947Z,100432.19
2018-04-25T20:21:24.399Z,100427.53
2018-04-25T20:23:52.782Z,100422.57
2018-04-25T20:26:21.534Z,100423.47
2018-04-25T20:28:49.946Z,100415.91
2018-04-25T20:31:19.459Z,100417.47
2018-04-25T20:33:47.849Z,100420.83
2018-04-25T20:36:16.332Z,100426.53
2018-04-25T20:38:44.665Z,100422.92
2018-04-25T20:44:13.806Z,100438.82
2018-04-25T20:46:42.229Z,100451.27
2018-04-25T20:49:11.634Z,100452.75
2018-04-25T20:51:40.212Z,100443.77
2018-04-25T20:54:08.611Z,100449.67
2018-04-25T20:56:36.965Z,100448.44
2018-04-25T20:59:06.158Z,100449.04
2018-04-25T21:01:34.598Z,100446.62
2018-04-25T21:04:03.034Z,100444.20
2018-04-25T21:06:31.443Z,100451.64
2018-04-25T21:08:59.790Z,100451.11
2018-04-25T21:11:28.188Z,100449.12
2018-04-25T21:13:56.566Z,100440.55
2018-04-25T21:16:24.940Z,100438.25
2018-04-25T21:18:53.333Z,100432.34
2018-04-25T21:21:21.709Z,100431.28
2018-04-25T21:23:50.117Z,100433.70
2018-04-25T21:26:18.522Z,100429.02
2018-04-25T21:28:46.980Z,100432.69
2018-04-25T21:31:15.450Z,100441.58
2018-04-25T21:33:43.845Z,100444.76
2018-04-25T21:36:12.188Z,100449.62
2018-04-25T21:38:40.611Z,100446.11
2018-04-25T21:41:08.965Z,100439.17
2018-04-25T21:43:37.309Z,100446.30
2018-04-25T21:46:05.691Z,100449.94
2018-04-25T21:48:34.795Z,100453.02
2018-04-25T21:51:03.130Z,100452.04
2018-04-25T21:53:32.294Z,100443.34
2018-04-25T21:56:00.711Z,100453.97
2018-04-25T21:58:29.075Z,100453.17
2018-04-25T22:00:58.272Z,100457.40
2018-04-25T22:03:26.659Z,100458.02
2018-04-25T22:05:55.818Z,100455.52
2018-04-25T22:08:24.153Z,100446.41
2018-04-25T22:10:53.479Z,100448.23
2018-04-25T22:13:21.823Z,100451.45
2018-04-25T22:15:50.982Z,100450.44
2018-04-25T22:18:27.963Z,100446.73
2018-04-25T22:20:56.337Z,100450.02
2018-04-25T22:23:24.735Z,100451.64
2018-04-25T22:25:53.073Z,100456.61
2018-04-25T22:28:21.623Z,100443.52
2018-04-25T22:30:49.969Z,100440.77
2018-04-25T22:33:18.310Z,100449.02
2018-04-25T22:35:47.161Z,100444.16
2018-04-25T22:38:16.018Z,100435.55
2018-04-25T22:40:44.369Z,100455.06
2018-04-25T22:43:14.388Z,100459.50
2018-04-25T22:45:43.053Z,100466.27
2018-04-25T22:48:11.457Z,100478.73
2018-04-25T22:50:39.909Z,100480.39
2018-04-25T22:53:08.243Z,100476.56
2018-04-25T22:55:37.320Z,100474.22
2018-04-25T22:58:06.218Z,100471.03
2018-04-25T23:00:34.573Z,100464.34
2018-04-25T23:03:03.923Z,100464.48
2018-04-25T23:05:33.061Z,100475.33
2018-04-25T23:08:01.432Z,100476.03
2018-04-25T23:10:31.153Z,100474.67
2018-04-25T23:12:59.507Z,100474.02
2018-04-25T23:15:28.251Z,100480.38
2018-04-25T23:17:56.569Z,100469.41
2018-04-25T23:20:24.885Z,100466.34
2018-04-25T23:22:53.244Z,100466.55
2018-04-25T23:25:22.002Z,100479.85
2018-04-25T23:27:50.364Z,100486.22
2018-04-25T23:30:19.326Z,100485.34
2018-04-25T23:32:47.671Z,100486.77
2018-04-25T23:35:16.994Z,100487.55
2018-04-25T23:37:45.364Z,100487.25
2018-04-25T23:40:13.690Z,100490.38
2018-04-25T23:42:43.993Z,100490.82
2018-04-25T23:45:13.109Z,100490.38
2018-04-25T23:47:43.230Z,100496.41
2018-04-25T23:50:11.564Z,100502.12
2018-04-25T23:52:39.942Z,100495.83
2018-04-25T23:55:08.278Z,100496.93
2018-04-25T23:57:36.642Z,100496.34
